Time;durP1;ratioP1;P1;durP2;ratioP2;P2;SDS_P1;SDS_P2;PMS_P1;PMS_P2;Temp;Humidity;BMP_temperature;BMP_pressure;BME280_temperature;BME280_humidity;BME280_pressure;Samples;Min_cycle;Max_cycle;Signal;HPM_P1;HPM_P2
2022/08/15 00:03:43;;;;;;;5.00;3.30;;;33.60;45.10;;;;;;10408711;28;20099;-37
2022/08/15 00:08:49;;;;;;;4.68;3.80;;;33.50;45.00;;;;;;10401378;28;20037;-38
2022/08/15 00:13:53;;;;;;;5.22;3.55;;;33.50;45.20;;;;;;10405507;28;20046;-35
2022/08/15 00:18:56;;;;;;;5.13;3.30;;;33.40;45.20;;;;;;10401490;28;20049;-38
2022/08/15 00:23:58;;;;;;;3.85;3.40;;;33.40;45.30;;;;;;10407068;28;20049;-32
2022/08/15 00:29:01;;;;;;;4.28;3.88;;;33.40;45.30;;;;;;10410305;28;20049;-38
2022/08/15 00:34:05;;;;;;;5.97;3.83;;;33.30;45.40;;;;;;10397479;28;20071;-37
2022/08/15 00:39:08;;;;;;;5.20;3.88;;;33.30;45.40;;;;;;10402666;28;20367;-36
2022/08/15 00:44:16;;;;;;;3.97;3.58;;;33.20;45.50;;;;;;10408341;28;20041;-36
2022/08/15 00:49:20;;;;;;;4.18;3.80;;;33.20;45.60;;;;;;10402635;28;20080;-35
2022/08/15 00:54:31;;;;;;;3.95;3.65;;;33.20;45.60;;;;;;10397245;28;20152;-36
2022/08/15 00:59:36;;;;;;;4.03;3.58;;;33.20;45.60;;;;;;10399494;28;20073;-36
2022/08/15 01:04:40;;;;;;;3.90;3.55;;;33.10;45.70;;;;;;10391288;28;20132;-35
2022/08/15 01:09:42;;;;;;;4.05;3.58;;;33.00;45.70;;;;;;10411328;28;20049;-37
2022/08/15 01:14:48;;;;;;;4.05;3.67;;;33.00;45.90;;;;;;10394646;28;20441;-35
2022/08/15 01:19:56;;;;;;;3.58;3.22;;;32.50;45.20;;;;;;10395298;28;20095;-35
2022/08/15 01:25:04;;;;;;;5.10;2.80;;;32.80;45.90;;;;;;10397977;28;20045;-36
2022/08/15 01:30:10;;;;;;;3.58;2.65;;;32.90;45.90;;;;;;10396864;28;20046;-37
2022/08/15 01:35:12;;;;;;;3.50;2.80;;;32.80;45.80;;;;;;10408500;28;20049;-37
2022/08/15 01:40:25;;;;;;;2.60;2.40;;;33.00;45.90;;;;;;10401061;28;20037;-35
2022/08/15 01:45:30;;;;;;;3.30;2.30;;;32.80;45.70;;;;;;10407141;28;20163;-36
2022/08/15 01:50:35;;;;;;;3.53;2.80;;;32.80;45.80;;;;;;10399968;28;20457;-38
2022/08/15 01:55:43;;;;;;;2.67;2.25;;;32.70;45.80;;;;;;10388446;28;20041;-38
2022/08/15 02:00:51;;;;;;;3.10;2.20;;;32.70;45.80;;;;;;10393487;28;20445;-36
2022/08/15 02:05:54;;;;;;;2.20;2.00;;;32.70;45.90;;;;;;10395120;28;20046;-38
2022/08/15 02:10:58;;;;;;;2.92;1.92;;;32.60;45.90;;;;;;10400699;28;20049;-37
2022/08/15 02:16:00;;;;;;;2.50;1.70;;;32.60;45.90;;;;;;10409522;28;20046;-35
2022/08/15 02:21:02;;;;;;;3.05;2.13;;;32.50;45.90;;;;;;10385898;28;20060;-35
2022/08/15 02:26:08;;;;;;;2.22;1.98;;;32.60;46.00;;;;;;10395030;28;20041;-36
2022/08/15 02:31:13;;;;;;;1.60;1.50;;;32.50;45.90;;;;;;10392097;28;20100;-37
2022/08/15 02:36:16;;;;;;;2.45;1.70;;;32.50;46.00;;;;;;10398460;28;20041;-37
2022/08/15 02:41:24;;;;;;;2.20;1.80;;;32.50;46.00;;;;;;10406188;28;20411;-36
2022/08/15 02:46:26;;;;;;;2.90;1.77;;;32.40;46.00;;;;;;10404408;28;20037;-40
2022/08/15 02:51:30;;;;;;;1.65;1.55;;;32.40;46.00;;;;;;10394672;28;20073;-36
2022/08/15 02:56:33;;;;;;;2.28;2.08;;;32.40;46.10;;;;;;10405643;28;20065;-38
2022/08/15 03:01:38;;;;;;;2.25;1.77;;;32.40;46.10;;;;;;10404204;28;20100;-38
2022/08/15 03:06:42;;;;;;;1.92;1.80;;;32.40;46.20;;;;;;10407851;28;20059;-37
2022/08/15 03:11:45;;;;;;;3.45;1.85;;;32.30;46.20;;;;;;10393207;28;20060;-38
2022/08/15 03:16:49;;;;;;;5.22;1.85;;;32.30;46.30;;;;;;10400783;28;20060;-38
2022/08/15 03:21:51;;;;;;;2.45;2.08;;;32.20;46.40;;;;;;10404886;28;20057;-37
2022/08/15 03:26:54;;;;;;;3.13;1.80;;;32.20;46.50;;;;;;10397822;28;20069;-36
2022/08/15 03:31:56;;;;;;;3.85;1.90;;;32.10;46.70;;;;;;10407084;28;20045;-36
2022/08/15 03:36:58;;;;;;;2.13;1.77;;;32.10;46.50;;;;;;10412565;28;20478;-36
2022/08/15 03:42:08;;;;;;;2.13;1.92;;;32.10;46.60;;;;;;10410595;28;20659;-37
2022/08/15 03:47:10;;;;;;;2.67;1.90;;;31.80;47.10;;;;;;10413681;28;20044;-36
2022/08/15 03:52:12;;;;;;;3.83;1.88;;;31.60;47.50;;;;;;10411769;28;20073;-37
2022/08/15 03:57:15;;;;;;;4.13;2.75;;;31.70;47.30;;;;;;10403773;28;20042;-38
2022/08/15 04:02:17;;;;;;;2.08;1.75;;;31.10;48.10;;;;;;10409837;28;20045;-35
2022/08/15 04:07:19;;;;;;;2.80;2.10;;;31.60;47.50;;;;;;10412016;28;20071;-36
2022/08/15 04:12:31;;;;;;;2.20;1.92;;;30.90;48.50;;;;;;10402882;28;20049;-36
2022/08/15 04:17:32;;;;;;;3.75;1.70;;;31.00;48.20;;;;;;10396555;28;20041;-33
2022/08/15 04:22:38;;;;;;;3.15;1.95;;;31.00;48.30;;;;;;10382532;28;20069;-36
2022/08/15 04:27:41;;;;;;;2.53;1.83;;;31.00;48.20;;;;;;10383915;28;20087;-35
2022/08/15 04:32:43;;;;;;;2.47;1.70;;;31.70;47.10;;;;;;10384437;28;20061;-36
2022/08/15 04:37:45;;;;;;;4.65;1.85;;;31.70;46.90;;;;;;10382802;28;20144;-36
2022/08/15 04:42:51;;;;;;;2.50;1.50;;;31.70;46.80;;;;;;10388903;28;20084;-35
2022/08/15 04:47:53;;;;;;;2.88;1.48;;;31.70;47.00;;;;;;10394399;28;20053;-36
2022/08/15 04:52:56;;;;;;;3.42;1.95;;;31.60;46.90;;;;;;10407638;28;20084;-37
2022/08/15 04:57:59;;;;;;;2.75;1.65;;;31.60;46.60;;;;;;10402928;28;20520;-37
2022/08/15 05:03:05;;;;;;;3.28;1.70;;;31.60;46.50;;;;;;10383970;28;20046;-36
2022/08/15 05:08:08;;;;;;;2.67;1.48;;;31.30;47.00;;;;;;10400308;28;20137;-36
2022/08/15 05:13:14;;;;;;;2.10;1.40;;;31.00;47.60;;;;;;10383707;28;20077;-34
2022/08/15 05:18:16;;;;;;;4.78;1.92;;;31.20;47.00;;;;;;10393402;28;20041;-38
2022/08/15 05:23:21;;;;;;;8.50;1.77;;;31.20;47.00;;;;;;10387854;28;20056;-35
2022/08/15 05:28:25;;;;;;;4.00;1.70;;;30.80;47.60;;;;;;10395304;28;20041;-36
2022/08/15 05:33:29;;;;;;;5.47;2.25;;;29.70;49.60;;;;;;10393842;28;20140;-35
2022/08/15 05:38:34;;;;;;;5.93;2.58;;;30.80;47.90;;;;;;10390785;28;20091;-37
2022/08/15 05:43:48;;;;;;;5.75;2.85;;;30.90;47.20;;;;;;10399722;28;20125;-37
2022/08/15 05:48:59;;;;;;;9.27;3.50;;;31.20;46.90;;;;;;10395731;28;21081;-37
2022/08/15 05:54:11;;;;;;;8.68;3.50;;;31.30;46.80;;;;;;10394627;28;20045;-36
2022/08/15 05:59:18;;;;;;;1.88;1.67;;;30.80;47.60;;;;;;10398751;28;20107;-36
2022/08/15 06:04:31;;;;;;;8.73;2.20;;;31.00;47.90;;;;;;10398476;28;20068;-38
2022/08/15 06:09:40;;;;;;;4.75;2.30;;;31.00;47.00;;;;;;10407307;28;20147;-36
2022/08/15 06:14:46;;;;;;;4.90;2.60;;;31.10;46.90;;;;;;10394290;28;20084;-36
2022/08/15 06:19:51;;;;;;;4.72;2.75;;;30.90;47.30;;;;;;10399021;28;20466;-37
2022/08/15 06:25:02;;;;;;;3.80;2.42;;;30.90;47.30;;;;;;10402135;28;20132;-36
2022/08/15 06:30:11;;;;;;;5.13;2.65;;;30.60;47.50;;;;;;10398068;28;20037;-36
2022/08/15 06:35:23;;;;;;;8.32;2.13;;;29.70;49.50;;;;;;10395261;28;20485;-36
2022/08/15 06:40:33;;;;;;;2.60;1.63;;;30.40;48.10;;;;;;10396746;28;20558;-42
2022/08/15 06:45:40;;;;;;;5.45;1.80;;;30.60;47.60;;;;;;10395271;28;20053;-36
2022/08/15 06:50:45;;;;;;;2.95;1.90;;;30.90;47.10;;;;;;10390636;28;20422;-38
2022/08/15 06:55:54;;;;;;;5.07;1.90;;;30.90;46.90;;;;;;10385553;28;20045;-37
2022/08/15 07:01:02;;;;;;;6.28;2.67;;;30.90;46.90;;;;;;10393075;28;20061;-37
2022/08/15 07:06:05;;;;;;;2.55;2.22;;;30.70;47.10;;;;;;10402464;28;20132;-38
2022/08/15 07:11:13;;;;;;;2.53;1.90;;;30.70;47.00;;;;;;10402478;28;20049;-36
2022/08/15 07:16:21;;;;;;;3.63;2.05;;;30.40;47.60;;;;;;10406358;28;20073;-37
2022/08/15 07:21:25;;;;;;;3.42;2.10;;;30.50;47.40;;;;;;10399191;28;20088;-36
2022/08/15 07:26:30;;;;;;;4.32;2.13;;;30.60;47.40;;;;;;10403550;28;20037;-35
2022/08/15 07:31:36;;;;;;;3.15;1.90;;;30.50;47.80;;;;;;10402653;28;20161;-35
2022/08/15 07:36:38;;;;;;;3.35;1.90;;;30.70;47.50;;;;;;10398359;28;20049;-36
2022/08/15 07:41:41;;;;;;;2.10;1.48;;;30.60;47.40;;;;;;10411504;28;20555;-35
2022/08/15 07:46:52;;;;;;;2.70;1.40;;;30.70;47.30;;;;;;10408871;28;20095;-37
2022/08/15 07:52:02;;;;;;;2.15;1.25;;;30.70;47.20;;;;;;10403003;28;20159;-34
2022/08/15 07:57:06;;;;;;;3.20;1.70;;;30.70;47.20;;;;;;10396805;28;20046;-34
2022/08/15 08:02:23;;;;;;;2.92;1.75;;;30.70;47.20;;;;;;10405990;28;20128;-37
2022/08/15 08:07:33;;;;;;;3.65;1.50;;;30.70;47.20;;;;;;10400406;28;20065;-37
2022/08/15 08:12:46;;;;;;;3.00;1.80;;;30.70;47.40;;;;;;10389945;28;20046;-36
2022/08/15 08:17:57;;;;;;;3.53;1.70;;;30.60;47.70;;;;;;10406710;28;20049;-38
2022/08/15 08:23:04;;;;;;;5.85;1.80;;;30.60;47.80;;;;;;10397486;28;20149;-36
2022/08/15 08:28:16;;;;;;;3.30;2.00;;;30.40;48.50;;;;;;10401097;28;20132;-35
2022/08/15 08:33:36;;;;;;;6.68;2.20;;;30.60;48.10;;;;;;10396147;28;20371;-36
2022/08/15 08:38:43;;;;;;;4.03;2.17;;;30.50;48.30;;;;;;10398239;28;20041;-37
2022/08/15 08:43:55;;;;;;;5.03;1.95;;;30.40;48.50;;;;;;10404169;28;20076;-35
2022/08/15 08:49:09;;;;;;;3.67;2.40;;;30.50;48.60;;;;;;10392279;28;20033;-36
2022/08/15 08:54:20;;;;;;;3.92;2.10;;;30.20;49.70;;;;;;10392354;28;20938;-36
2022/08/15 08:59:26;;;;;;;4.20;2.13;;;30.70;49.00;;;;;;10400250;28;20085;-37
2022/08/15 09:04:37;;;;;;;3.90;2.10;;;30.50;48.80;;;;;;10397231;28;20077;-36
2022/08/15 09:09:43;;;;;;;6.72;2.28;;;30.60;48.70;;;;;;10408056;28;20061;-37
2022/08/15 09:14:48;;;;;;;3.58;2.42;;;30.60;48.60;;;;;;10400471;28;20050;-34
2022/08/15 09:19:57;;;;;;;3.03;2.03;;;30.50;48.80;;;;;;10402278;28;20137;-37
2022/08/15 09:25:00;;;;;;;7.68;4.97;;;30.60;48.60;;;;;;10397134;28;20041;-34
2022/08/15 09:30:06;;;;;;;3.17;2.47;;;29.90;50.70;;;;;;10392808;28;20135;-36
2022/08/15 09:35:33;;;;;;;7.20;2.92;;;30.40;49.20;;;;;;10400860;28;20060;-36
2022/08/15 09:40:58;;;;;;;3.22;2.33;;;30.20;50.40;;;;;;10406222;28;20072;-36
2022/08/15 09:46:40;;;;;;;3.97;2.58;;;30.20;49.70;;;;;;10407776;28;20053;-37
2022/08/15 09:52:03;;;;;;;4.32;2.80;;;30.20;49.80;;;;;;10404948;28;20135;-35
2022/08/15 09:57:24;;;;;;;3.35;2.53;;;30.20;49.70;;;;;;10395525;28;20072;-35
2022/08/15 10:02:32;;;;;;;3.50;2.28;;;30.30;49.40;;;;;;10404039;28;20091;-36
2022/08/15 10:07:47;;;;;;;4.63;2.53;;;30.40;49.10;;;;;;10404119;28;20116;-37
2022/08/15 10:13:23;;;;;;;4.90;2.50;;;30.40;49.20;;;;;;10386575;28;20575;-37
2022/08/15 10:19:02;;;;;;;5.78;4.50;;;30.40;49.30;;;;;;10401645;28;20487;-38
2022/08/15 10:24:23;;;;;;;5.25;2.50;;;30.30;49.40;;;;;;10405011;28;20091;-38
2022/08/15 10:29:29;;;;;;;8.23;4.55;;;30.40;49.30;;;;;;10399197;28;20133;-38
2022/08/15 10:34:38;;;;;;;8.68;3.70;;;29.80;50.40;;;;;;10405125;28;20103;-35
2022/08/15 10:40:02;;;;;;;2.92;2.60;;;29.20;51.90;;;;;;10405481;28;20046;-36
2022/08/15 10:45:13;;;;;;;6.18;4.28;;;29.10;52.60;;;;;;10409446;28;20077;-36
2022/08/15 10:50:19;;;;;;;7.78;3.60;;;29.00;52.00;;;;;;10411630;28;20085;-36
2022/08/15 10:55:27;;;;;;;7.63;4.88;;;29.40;51.40;;;;;;10409667;28;20506;-37
2022/08/15 11:00:41;;;;;;;7.35;4.05;;;28.90;53.20;;;;;;10410538;28;20140;-36
2022/08/15 11:05:43;;;;;;;4.65;3.17;;;29.00;52.80;;;;;;10409993;28;20575;-37
2022/08/15 11:10:48;;;;;;;10.77;5.55;;;29.20;51.80;;;;;;10417931;28;20045;-38
2022/08/15 11:15:54;;;;;;;3.75;2.67;;;28.90;52.20;;;;;;10409617;28;20049;-36
2022/08/15 11:21:02;;;;;;;5.18;3.28;;;29.40;51.30;;;;;;10409284;28;20398;-37
2022/08/15 11:26:08;;;;;;;6.45;3.45;;;29.80;50.20;;;;;;10390424;28;20528;-37
2022/08/15 11:31:17;;;;;;;5.85;3.53;;;29.60;51.20;;;;;;10383064;28;20088;-38
2022/08/15 11:36:23;;;;;;;10.48;6.05;;;29.30;51.40;;;;;;10388629;28;20046;-36
2022/08/15 11:41:31;;;;;;;14.65;6.05;;;29.10;52.50;;;;;;10400789;28;20100;-35
2022/08/15 11:46:33;;;;;;;13.73;6.07;;;27.50;55.60;;;;;;10393672;28;20515;-35
2022/08/15 11:51:40;;;;;;;7.85;5.93;;;28.30;55.70;;;;;;10398568;28;20077;-36
2022/08/15 11:56:52;;;;;;;4.18;2.83;;;28.60;54.20;;;;;;10394333;28;20046;-36
2022/08/15 12:02:07;;;;;;;4.43;3.00;;;29.20;51.70;;;;;;10399804;28;20045;-37
2022/08/15 12:07:13;;;;;;;7.07;2.78;;;29.90;50.50;;;;;;10393037;28;20489;-38
2022/08/15 12:12:29;;;;;;;8.23;4.28;;;29.40;51.20;;;;;;10394436;28;20049;-36
2022/08/15 12:17:32;;;;;;;6.55;4.70;;;29.30;51.70;;;;;;10395307;28;20045;-35
2022/08/15 12:22:38;;;;;;;13.00;5.60;;;28.70;53.30;;;;;;10392044;28;20153;-35
2022/08/15 12:27:41;;;;;;;2.92;2.30;;;28.10;56.80;;;;;;10392613;28;20069;-36
2022/08/15 12:32:43;;;;;;;22.92;11.55;;;28.50;52.90;;;;;;10398457;28;20482;-35
2022/08/15 12:37:45;;;;;;;16.73;9.27;;;26.50;60.00;;;;;;10395377;28;20088;-36
2022/08/15 12:42:48;;;;;;;14.45;9.13;;;27.10;57.10;;;;;;10405324;28;20157;-37
2022/08/15 12:47:50;;;;;;;7.65;5.85;;;27.40;55.50;;;;;;10395834;28;20067;-37
2022/08/15 12:52:53;;;;;;;10.82;5.32;;;27.90;54.10;;;;;;10403742;28;20057;-37
2022/08/15 12:57:56;;;;;;;14.35;7.50;;;28.50;55.20;;;;;;10400533;28;20057;-35
2022/08/15 13:02:58;;;;;;;8.68;3.78;;;28.80;52.10;;;;;;10385029;28;20176;-36
2022/08/15 13:08:00;;;;;;;10.98;7.70;;;27.80;55.20;;;;;;10402178;28;20046;-36
2022/08/15 13:13:04;;;;;;;7.82;6.13;;;28.40;54.40;;;;;;10396835;28;20054;-36
2022/08/15 13:18:06;;;;;;;9.52;5.25;;;28.40;56.00;;;;;;10381709;28;20041;-37
2022/08/15 13:28:28;;;;;;;4.43;3.50;;;28.90;54.30;;;;;;10379402;28;20057;-35
2022/08/15 13:33:31;;;;;;;14.68;9.35;;;28.70;52.30;;;;;;10375190;28;20050;-36
2022/08/15 13:38:34;;;;;;;2.95;2.28;;;28.90;55.20;;;;;;10378102;28;20052;-36
2022/08/15 13:43:41;;;;;;;11.63;6.10;;;29.80;49.90;;;;;;10380802;28;20124;-36
2022/08/15 13:48:46;;;;;;;4.32;3.10;;;29.90;51.60;;;;;;10389728;28;20119;-36
2022/08/15 13:53:49;;;;;;;6.20;2.75;;;30.50;48.60;;;;;;10393324;28;20049;-36
2022/08/15 13:58:52;;;;;;;4.40;2.65;;;30.20;49.90;;;;;;10393985;28;20088;-37
2022/08/15 14:03:59;;;;;;;6.78;4.95;;;30.80;48.10;;;;;;10390719;28;20047;-37
2022/08/15 14:09:01;;;;;;;4.43;2.63;;;30.80;48.40;;;;;;10385214;28;20532;-37
2022/08/15 14:14:06;;;;;;;2.35;2.10;;;30.80;48.10;;;;;;10377121;28;20393;-35
2022/08/15 14:19:10;;;;;;;10.63;5.50;;;31.10;48.40;;;;;;10381664;28;20068;-37
2022/08/15 14:24:13;;;;;;;4.65;3.47;;;31.40;48.10;;;;;;10384043;28;20041;-37
2022/08/15 14:29:22;;;;;;;9.40;5.45;;;31.50;47.60;;;;;;10383402;28;20137;-32
2022/08/15 14:34:24;;;;;;;14.13;8.05;;;31.80;49.40;;;;;;10382959;28;20108;-35
2022/08/15 14:39:26;;;;;;;11.73;6.68;;;32.30;48.00;;;;;;10386833;28;20053;-36
2022/08/15 14:44:30;;;;;;;7.03;5.00;;;32.90;47.20;;;;;;10385767;28;20045;-34
2022/08/15 14:49:32;;;;;;;2.60;2.35;;;33.10;47.60;;;;;;10386983;28;20183;-37
2022/08/15 14:54:36;;;;;;;3.40;1.80;;;33.00;45.70;;;;;;10391720;28;20462;-36
2022/08/15 14:59:39;;;;;;;9.40;3.72;;;32.80;46.40;;;;;;10400619;28;20042;-37
2022/08/15 15:04:41;;;;;;;2.10;1.70;;;33.70;47.80;;;;;;10395964;28;20142;-36
2022/08/15 15:09:44;;;;;;;7.00;3.47;;;33.80;45.40;;;;;;10398596;28;20045;-36
2022/08/15 15:14:47;;;;;;;7.15;3.95;;;34.20;46.30;;;;;;10397453;28;20065;-37
2022/08/15 15:19:49;;;;;;;6.43;3.85;;;35.10;46.20;;;;;;10397021;28;20120;-36
2022/08/15 15:24:53;;;;;;;8.00;4.32;;;35.30;44.60;;;;;;10394513;28;20758;-32
2022/08/15 15:29:56;;;;;;;6.18;4.72;;;35.80;44.70;;;;;;10397010;28;20052;-36
2022/08/15 15:34:58;;;;;;;4.13;3.33;;;34.50;45.60;;;;;;10401656;28;20107;-35
2022/08/15 15:40:01;;;;;;;3.17;2.70;;;34.90;49.00;;;;;;10398287;28;20121;-45
2022/08/15 15:45:07;;;;;;;13.52;6.07;;;35.30;47.40;;;;;;10384998;28;20450;-35
2022/08/15 15:50:13;;;;;;;6.07;2.08;;;35.30;45.90;;;;;;10389502;28;20095;-35
2022/08/15 15:55:15;;;;;;;5.85;2.72;;;35.20;48.30;;;;;;10384636;28;20469;-35
2022/08/15 16:00:21;;;;;;;2.90;2.08;;;35.90;48.10;;;;;;10379287;28;20046;-36
2022/08/15 16:05:27;;;;;;;5.35;3.72;;;35.20;48.80;;;;;;10393487;28;20143;-35
2022/08/15 16:10:33;;;;;;;6.72;4.07;;;37.90;45.30;;;;;;10399305;28;20167;-36
2022/08/15 16:15:47;;;;;;;4.90;2.33;;;36.50;45.60;;;;;;10389080;28;20569;-36
2022/08/15 16:20:53;;;;;;;7.20;3.85;;;35.50;48.30;;;;;;10398459;28;20535;-35
2022/08/15 16:26:00;;;;;;;8.02;3.95;;;35.50;49.30;;;;;;10403423;28;20117;-36
2022/08/15 16:31:13;;;;;;;4.00;2.30;;;34.80;49.40;;;;;;10386365;28;20088;-35
2022/08/15 16:36:25;;;;;;;7.20;3.15;;;35.40;50.70;;;;;;10391672;28;20051;-36
2022/08/15 16:41:32;;;;;;;3.63;2.88;;;35.60;49.80;;;;;;10398953;28;20053;-35
2022/08/15 16:46:45;;;;;;;4.43;2.60;;;35.60;44.70;;;;;;10401684;28;20047;-35
2022/08/15 16:51:58;;;;;;;4.68;2.42;;;35.40;49.90;;;;;;10402998;28;20076;-36
2022/08/15 16:57:07;;;;;;;4.20;3.00;;;34.60;52.00;;;;;;10401367;28;20441;-37
2022/08/15 17:02:31;;;;;;;7.20;4.47;;;34.70;51.90;;;;;;10410168;28;20087;-35
2022/08/15 17:07:45;;;;;;;8.45;4.82;;;34.00;47.00;;;;;;10399919;28;20100;-34
2022/08/15 17:12:55;;;;;;;7.90;2.85;;;33.90;50.10;;;;;;10382333;28;20126;-35
2022/08/15 17:18:05;;;;;;;;;;;34.10;49.10;;;;;;10393465;28;20133;-36
2022/08/15 17:23:11;;;;;;;7.18;4.68;;;34.40;50.90;;;;;;10398258;28;19921;-35
2022/08/15 17:28:18;;;;;;;7.57;4.63;;;34.60;49.50;;;;;;10388730;28;20069;-36
2022/08/15 17:33:27;;;;;;;4.95;2.20;;;34.10;49.80;;;;;;10402505;28;20461;-37
2022/08/15 17:38:33;;;;;;;2.72;2.42;;;34.70;48.90;;;;;;10390582;28;20077;-36
2022/08/15 17:43:41;;;;;;;6.82;3.90;;;34.50;50.50;;;;;;10396858;28;20045;-35
2022/08/15 17:48:48;;;;;;;6.95;3.75;;;34.60;50.60;;;;;;10402598;28;20437;-35
2022/08/15 17:53:57;;;;;;;8.77;3.65;;;34.70;49.90;;;;;;10396746;28;20085;-34
2022/08/15 17:59:05;;;;;;;9.07;5.10;;;34.80;50.00;;;;;;10394041;28;20092;-37
2022/08/15 18:04:09;;;;;;;17.38;7.85;;;34.80;49.70;;;;;;10395118;28;20644;-39
2022/08/15 18:09:14;;;;;;;22.90;8.70;;;34.60;48.60;;;;;;10393102;28;20062;-41
2022/08/15 18:14:16;;;;;;;16.63;6.63;;;34.50;47.60;;;;;;10396582;28;20160;-45
2022/08/15 18:19:20;;;;;;;8.60;3.92;;;34.40;46.90;;;;;;10384524;28;20049;-41
2022/08/15 18:24:26;;;;;;;10.68;4.70;;;34.10;47.00;;;;;;10376519;28;20465;-33
2022/08/15 18:29:30;;;;;;;6.30;3.15;;;33.90;46.60;;;;;;10388917;28;20199;-36
2022/08/15 18:34:40;;;;;;;4.05;2.67;;;33.90;47.50;;;;;;10398935;28;20393;-35
2022/08/15 18:45:04;;;;;;;4.93;2.63;;;34.10;47.80;;;;;;10385071;28;20076;-34
2022/08/15 18:50:22;;;;;;;6.78;3.00;;;34.00;47.70;;;;;;10393029;28;20048;-34
2022/08/15 18:55:28;;;;;;;4.43;2.45;;;34.10;48.00;;;;;;10402520;28;20573;-34
2022/08/15 19:00:32;;;;;;;4.97;2.95;;;34.00;48.10;;;;;;10395255;28;20049;-37
2022/08/15 19:05:38;;;;;;;3.38;2.60;;;33.90;47.80;;;;;;10400437;28;20116;-35
2022/08/15 19:10:46;;;;;;;5.68;2.78;;;33.80;47.50;;;;;;10404770;28;20041;-34
2022/08/15 19:15:54;;;;;;;3.95;2.88;;;33.60;47.30;;;;;;10386085;28;20140;-35
2022/08/15 19:20:57;;;;;;;5.72;2.90;;;33.60;47.20;;;;;;10404304;28;20049;-36
2022/08/15 19:26:07;;;;;;;7.43;3.25;;;33.60;47.20;;;;;;10399305;28;20084;-36
2022/08/15 19:31:16;;;;;;;;;;;33.50;47.10;;;;;;10406684;28;20073;-35
2022/08/15 19:36:32;;;;;;;7.60;3.25;;;33.40;47.10;;;;;;10402680;28;20008;-37
2022/08/15 19:41:40;;;;;;;6.68;3.40;;;33.40;47.20;;;;;;10399272;28;20061;-34
2022/08/15 19:46:47;;;;;;;6.20;3.83;;;33.30;47.20;;;;;;10405100;28;20060;-35
2022/08/15 19:51:54;;;;;;;10.18;3.22;;;33.20;47.30;;;;;;10392065;28;20462;-36
2022/08/15 19:57:01;;;;;;;6.20;3.85;;;33.20;47.30;;;;;;10391174;28;20161;-36
2022/08/15 20:02:18;;;;;;;5.50;3.17;;;33.10;47.20;;;;;;10400712;28;20045;-35
2022/08/15 20:07:31;;;;;;;4.45;2.83;;;33.10;47.40;;;;;;10412410;28;20085;-38
2022/08/15 20:12:38;;;;;;;4.78;2.78;;;33.00;47.40;;;;;;10405259;28;20075;-35
2022/08/15 20:17:51;;;;;;;5.90;3.17;;;33.00;48.10;;;;;;10400052;28;20501;-35
2022/08/15 20:23:03;;;;;;;4.25;2.55;;;33.00;47.60;;;;;;10400088;28;20068;-35
2022/08/15 20:28:11;;;;;;;6.60;2.78;;;32.90;47.60;;;;;;10393943;28;20087;-37
2022/08/15 20:33:17;;;;;;;7.13;3.15;;;32.90;47.70;;;;;;10377399;28;20536;-35
2022/08/15 20:38:25;;;;;;;3.80;2.90;;;32.80;47.70;;;;;;10384788;28;20042;-35
2022/08/15 20:43:33;;;;;;;7.78;2.97;;;32.80;47.70;;;;;;10403601;28;20057;-35
2022/08/15 20:48:39;;;;;;;3.15;2.65;;;32.80;47.90;;;;;;10408363;28;20041;-35
2022/08/15 20:53:45;;;;;;;3.13;2.47;;;32.70;47.90;;;;;;10398193;28;20095;-36
2022/08/15 20:59:11;;;;;;;3.15;2.83;;;32.70;48.10;;;;;;10397931;28;20053;-36
2022/08/15 21:04:30;;;;;;;4.50;3.22;;;32.70;48.20;;;;;;10402718;28;20435;-36
2022/08/15 21:09:44;;;;;;;2.85;2.50;;;32.70;48.20;;;;;;10408263;28;20042;-34
2022/08/15 21:14:52;;;;;;;3.88;2.45;;;32.60;48.30;;;;;;10399751;28;20503;-36
2022/08/15 21:20:15;;;;;;;4.30;2.38;;;32.60;48.30;;;;;;10397129;28;20132;-42
2022/08/15 21:25:44;;;;;;;2.85;2.40;;;32.60;48.40;;;;;;10398770;28;20045;-35
2022/08/15 21:30:54;;;;;;;5.35;2.63;;;32.50;48.50;;;;;;10392594;28;20065;-35
2022/08/15 21:35:56;;;;;;;3.90;2.40;;;32.50;48.50;;;;;;10405559;28;20398;-37
2022/08/15 21:40:59;;;;;;;2.63;2.40;;;32.40;48.50;;;;;;10396158;28;20072;-35
2022/08/15 21:46:01;;;;;;;3.85;2.72;;;32.40;48.60;;;;;;10386627;28;20168;-36
2022/08/15 21:51:22;;;;;;;3.80;2.58;;;32.30;48.60;;;;;;10398575;28;20057;-34
2022/08/15 21:56:25;;;;;;;4.32;2.53;;;32.30;48.60;;;;;;10405901;28;20041;-35
2022/08/15 22:01:49;;;;;;;2.95;2.00;;;32.30;48.70;;;;;;10405888;28;20071;-35
2022/08/15 22:06:51;;;;;;;3.13;2.38;;;32.20;48.70;;;;;;10410624;28;20088;-36
2022/08/15 22:11:55;;;;;;;3.53;2.35;;;32.20;48.80;;;;;;10404165;28;20054;-35
2022/08/15 22:16:58;;;;;;;3.40;2.58;;;32.20;48.80;;;;;;10395466;28;20081;-34
2022/08/15 22:22:00;;;;;;;2.80;2.35;;;32.10;48.80;;;;;;10394092;28;20355;-35
2022/08/15 22:27:04;;;;;;;5.75;2.55;;;32.10;48.90;;;;;;10391904;28;20077;-34
2022/08/15 22:32:10;;;;;;;6.63;3.17;;;32.00;48.90;;;;;;10401006;28;20137;-34
2022/08/15 22:37:12;;;;;;;2.83;2.53;;;32.00;49.10;;;;;;10398378;28;20136;-34
2022/08/15 22:42:22;;;;;;;2.40;2.20;;;32.00;49.10;;;;;;10404140;28;20037;-37
2022/08/15 22:47:24;;;;;;;4.47;2.55;;;31.90;49.10;;;;;;10390795;28;20038;-36
2022/08/15 22:52:30;;;;;;;7.88;3.25;;;31.90;49.20;;;;;;10389943;28;20072;-35
2022/08/15 22:57:36;;;;;;;3.17;2.28;;;31.90;49.30;;;;;;10396917;28;20144;-37
2022/08/15 23:02:41;;;;;;;3.53;2.78;;;31.80;49.30;;;;;;10391977;28;20134;-37
2022/08/15 23:07:48;;;;;;;3.75;2.65;;;31.80;49.40;;;;;;10410118;28;20050;-35
2022/08/15 23:12:55;;;;;;;3.63;2.80;;;31.70;49.30;;;;;;10393382;28;20127;-36
2022/08/15 23:18:02;;;;;;;4.10;2.90;;;31.70;49.40;;;;;;10393790;28;20435;-35
2022/08/15 23:23:07;;;;;;;6.05;3.33;;;31.70;49.50;;;;;;10395725;28;20344;-35
2022/08/15 23:28:10;;;;;;;8.07;3.38;;;31.40;49.70;;;;;;10394900;28;20120;-34
2022/08/15 23:33:13;;;;;;;5.00;3.20;;;31.60;49.50;;;;;;10401808;28;20542;-35
2022/08/15 23:38:15;;;;;;;4.47;2.90;;;31.60;49.50;;;;;;10399935;28;20427;-34
2022/08/15 23:43:18;;;;;;;3.05;2.60;;;31.10;50.80;;;;;;10402687;28;20065;-35
2022/08/15 23:48:20;;;;;;;4.47;3.20;;;31.30;49.80;;;;;;10401739;28;20034;-34
2022/08/15 23:53:22;;;;;;;4.93;3.03;;;31.10;50.20;;;;;;10409699;28;20091;-34
2022/08/15 23:58:25;;;;;;;3.53;2.90;;;31.30;49.70;;;;;;10405322;28;20508;-34
